Aeroporto :
LOGIN :

Iscrizione | Disclaimer

   EN    FR    IT 

 










Sommario :    VFR   VFR Marginale   IFR   IFR Intensivo   IFR Molto Intensivo
Visibilità : 
Base nubi : 
>= 8 km
>= 3000ft
5 / 8 km
1000 / 3000 ft
1500m / 5 km
500 / 1000 ft
800 / 1500m
200 / 500 ft
< 800m
< 200 ft
Simboli :   Temporali  Nebbia  Neve Forte  Precipitazioni Forti  Vento > 20 kt
SIGMETs :   Varie  Temporali  Ghiacco  Turbolenza  Onda orograficha  Ceneri Vulcaniche






- Altitudine del aeroporto : 187 ft


ETNW - Wunstorf AB

ULTIMO METAR :
  • 171420Z 25014KT 9999 FEW036 SCT046 11/02 Q1010 BLU+BLU+ TEMPO YLO

METARs OBSOLETI :
  • 171320Z 25016KT 9999 SCT040 11/01 Q1010 BLU+BLU+ TEMPO YLO
  • 171220Z 25018G28KT 9999 FEW040 10/01 Q1010 BLU+BLU+

TAF AMD TAF ETNW
Valido dal 17 a 12 ore il 18 a 12 ore UTC


171225Z 1712/1812 25015G30KT 9999 NSW SCT030
TEMPO 1713/1808 22020G37KT 3500 SHRAGS BKN010CB
BECMG 1808/1810 25015G30KT 9999 NSW SCT040
TEMPO 1810/1812 25020G38KT 9999 NSW BKN040 BY ETGL



MetMap, La meteo Aeronautica in un colpo d'occhio ! - Copyright ORBIFLY Dicembre 2007 - Disclaimer

ORBIFLY MET'MAP TEAM :

Programmazione e sviluppo : Alexandra Zaïnal
Concezione : Baudouin d'Aumeries
Aiuto per la programmazione : Marc-Olivier Méhu
Supporto tecnico e logistico : Manuel Goepfert
Aiuto per la traduzione : Arnaldo La Scala

Contatto : metmap@orbifly.com




FONTI E CREDITI :

   NOAA